Bookmark and Share
Track history (hours):
 

Venus Seven

Last reported at 2014-Apr-16 07:31 UTC. Time now 2014-Apr-18 05:31 UTC.
Position N 24°15' E 120°28'.

Length 93 m; draft 5.7 m.

Type: Cargo ship. MMSI: 353405000.

NotesDate/timePositionNaut miles runAvg speedWind from/ knotsBaromVisibWave heightAir tempDewpointWater temp
2014-Apr-16 07:31N 24°15' E 120°28'0 0.0
2014-Apr-16 06:31N 24°15' E 120°28'0 0.0
2014-Apr-16 05:22N 24°15' E 120°28'90 6.0
2014-Apr-15 14:22N 22°48' E 120°04'11 6.1
2014-Apr-15 12:34N 22°38' E 120°11'1010.2
2014-Apr-15 11:34N 22°33' E 120°20'0 0.0
2014-Apr-14 22:33N 22°33' E 120°20'4 2.1
2014-Apr-14 20:32N 22°37' E 120°17'0 0.0
2014-Apr-14 19:32N 22°37' E 120°17'0 0.0
2014-Apr-14 18:32N 22°37' E 120°17'0 0.0
2014-Apr-14 17:32N 22°37' E 120°17'0 0.0
2014-Apr-14 16:32N 22°37' E 120°17'0 0.0
2014-Apr-14 15:32N 22°37' E 120°17'0 0.0
2014-Apr-14 14:32N 22°37' E 120°17'0 0.0
2014-Apr-14 13:32N 22°37' E 120°17'0 0.0
2014-Apr-14 11:31N 22°37' E 120°17'0 0.0
2014-Apr-14 10:31N 22°37' E 120°17'0 0.0
2014-Apr-14 08:31N 22°37' E 120°17'0 0.0
2014-Apr-14 07:31N 22°37' E 120°17'0 0.0
2014-Apr-14 06:31N 22°37' E 120°17'0 0.0
2014-Apr-14 05:31N 22°37' E 120°17'3 0.4
2014-Apr-13 22:33N 22°37' E 120°14'0 0.1
2014-Apr-13 21:30N 22°37' E 120°14'0 0.0
2014-Apr-13 20:30N 22°37' E 120°14'0 0.0
2014-Apr-13 19:30N 22°37' E 120°14'0 0.0
2014-Apr-13 18:30N 22°37' E 120°14'0 0.0
2014-Apr-13 17:30N 22°37' E 120°14'0 0.0
2014-Apr-13 16:24N 22°37' E 120°14'0 0.0
2014-Apr-13 15:30N 22°37' E 120°14'0 0.1
2014-Apr-13 14:30N 22°37' E 120°15'0 0.1
2014-Apr-13 13:30N 22°37' E 120°14'0 0.1
2014-Apr-13 12:30N 22°37' E 120°15'0 0.1
2014-Apr-13 11:30N 22°37' E 120°14'0 0.1
2014-Apr-13 10:30N 22°37' E 120°15'0 0.0
2014-Apr-13 09:30N 22°37' E 120°15'0 0.0
2014-Apr-13 08:30N 22°37' E 120°15'0 0.2
2014-Apr-13 07:33N 22°37' E 120°14'1413.7
2014-Apr-13 06:33N 22°47' E 120°05'  
2014-Apr-09 11:32N 33°60' E 134°56'1312.8
2014-Apr-09 10:30N 34°13' E 134°58'1212.0
2014-Apr-09 09:29N 34°24' E 135°04'1212.4
2014-Apr-09 08:32N 34°32' E 135°14'10 9.9
2014-Apr-09 07:34N 34°38' E 135°24'1 1.0
2014-Apr-09 06:32N 34°38' E 135°25'0 0.0
2014-Apr-09 05:32N 34°38' E 135°25'0 0.0
2014-Apr-09 04:32N 34°38' E 135°25'0 0.0
2014-Apr-09 03:32N 34°38' E 135°25'0 0.0
2014-Apr-09 02:20N 34°38' E 135°25'0 0.0
2014-Apr-09 01:32N 34°38' E 135°25'0 0.0
2014-Apr-09 00:20N 34°38' E 135°25'0 0.0
2014-Apr-08 23:20N 34°38' E 135°25'0 0.0
2014-Apr-08 22:32N 34°38' E 135°25'0 0.0
2014-Apr-08 21:32N 34°38' E 135°25'0 0.0
2014-Apr-08 20:32N 34°38' E 135°25'0 0.0
2014-Apr-08 19:32N 34°38' E 135°25'0 0.0
2014-Apr-08 18:32N 34°38' E 135°25'0 0.0
2014-Apr-08 17:32N 34°38' E 135°25'0 0.0
2014-Apr-08 16:32N 34°38' E 135°25'0 0.0
2014-Apr-08 15:32N 34°38' E 135°25'0 0.0
2014-Apr-08 14:32N 34°38' E 135°25'0 0.0
2014-Apr-08 13:26N 34°38' E 135°25'0 0.0
2014-Apr-08 12:32N 34°38' E 135°25'0 0.0
2014-Apr-08 11:32N 34°38' E 135°25'0 0.0
2014-Apr-08 10:32N 34°38' E 135°25'0 0.0
2014-Apr-08 09:32N 34°38' E 135°25'0 0.0
2014-Apr-08 08:26N 34°38' E 135°25'0 0.0
2014-Apr-08 07:32N 34°38' E 135°25'0 0.0
2014-Apr-08 06:32N 34°38' E 135°25'0 0.0
2014-Apr-08 05:26N 34°38' E 135°25'0 0.0
2014-Apr-08 04:32N 34°38' E 135°25'0 0.0
2014-Apr-08 03:20N 34°38' E 135°25'0 0.0
2014-Apr-08 02:32N 34°38' E 135°25'0 0.0
2014-Apr-08 01:26N 34°38' E 135°25'0 0.0
2014-Apr-08 00:32N 34°38' E 135°25'0 0.0
2014-Apr-07 23:32N 34°38' E 135°25'0 0.0
2014-Apr-07 22:32N 34°38' E 135°25'2 1.7
2014-Apr-07 21:28N 34°37' E 135°23'0 0.0
2014-Apr-07 20:28N 34°37' E 135°23'0 0.0
2014-Apr-07 19:28N 34°37' E 135°23'0 0.0
2014-Apr-07 17:15N 34°37' E 135°23'0 0.0
2014-Apr-07 16:27N 34°37' E 135°23'0 0.1
2014-Apr-07 15:33N 34°37' E 135°23'0 0.0
2014-Apr-07 14:33N 34°37' E 135°23'1 1.1
2014-Apr-07 13:33N 34°37' E 135°22'1313.0
2014-Apr-07 12:33N 34°35' E 135°06'1313.4
2014-Apr-07 11:33N 34°34' E 134°50'  

Dump ship's entire track history

sailing weather and tide predictions

Venus Seven — H9RN — position and weather